sensor_id;sensor_type;location;lat;lon;timestamp;temperature;humidity
13652;DHT22;6899;51.546;6.912;2024-01-30T00:02:23;6.90;99.90
13652;DHT22;6899;51.546;6.912;2024-01-30T00:04:54;6.90;99.90
13652;DHT22;6899;51.546;6.912;2024-01-30T00:07:27;6.80;99.90
13652;DHT22;6899;51.546;6.912;2024-01-30T00:09:53;6.90;99.90
13652;DHT22;6899;51.546;6.912;2024-01-30T00:12:26;6.80;99.90
13652;DHT22;6899;51.546;6.912;2024-01-30T00:15:07;6.80;99.90
13652;DHT22;6899;51.546;6.912;2024-01-30T00:17:36;6.80;99.90
13652;DHT22;6899;51.546;6.912;2024-01-30T00:20:10;6.70;99.90
13652;DHT22;6899;51.546;6.912;2024-01-30T00:22:38;6.60;99.90
13652;DHT22;6899;51.546;6.912;2024-01-30T00:25:07;6.50;99.90
13652;DHT22;6899;51.546;6.912;2024-01-30T00:27:35;6.50;99.90
13652;DHT22;6899;51.546;6.912;2024-01-30T00:30:03;6.50;99.90
13652;DHT22;6899;51.546;6.912;2024-01-30T00:32:32;6.50;99.90
13652;DHT22;6899;51.546;6.912;2024-01-30T00:34:59;6.40;99.90
13652;DHT22;6899;51.546;6.912;2024-01-30T00:37:27;6.40;99.90
13652;DHT22;6899;51.546;6.912;2024-01-30T00:39:54;6.40;99.90
13652;DHT22;6899;51.546;6.912;2024-01-30T00:42:21;6.40;99.90
13652;DHT22;6899;51.546;6.912;2024-01-30T00:44:50;6.40;99.90
13652;DHT22;6899;51.546;6.912;2024-01-30T00:47:17;6.50;99.90
13652;DHT22;6899;51.546;6.912;2024-01-30T00:49:44;6.50;99.90
13652;DHT22;6899;51.546;6.912;2024-01-30T00:52:11;6.50;99.90
13652;DHT22;6899;51.546;6.912;2024-01-30T00:54:39;6.50;99.90
13652;DHT22;6899;51.546;6.912;2024-01-30T00:57:06;6.50;99.90
13652;DHT22;6899;51.546;6.912;2024-01-30T00:59:33;6.40;99.90
13652;DHT22;6899;51.546;6.912;2024-01-30T01:02:01;6.50;99.90
13652;DHT22;6899;51.546;6.912;2024-01-30T01:04:28;6.50;99.90
13652;DHT22;6899;51.546;6.912;2024-01-30T01:06:55;6.50;99.90
13652;DHT22;6899;51.546;6.912;2024-01-30T01:09:24;6.50;99.90
13652;DHT22;6899;51.546;6.912;2024-01-30T01:11:52;6.50;99.90
13652;DHT22;6899;51.546;6.912;2024-01-30T01:14:21;6.50;99.90
13652;DHT22;6899;51.546;6.912;2024-01-30T01:16:48;6.50;99.90
13652;DHT22;6899;51.546;6.912;2024-01-30T01:19:15;6.50;99.90
13652;DHT22;6899;51.546;6.912;2024-01-30T01:21:42;6.60;99.90
13652;DHT22;6899;51.546;6.912;2024-01-30T01:24:09;6.60;99.90
13652;DHT22;6899;51.546;6.912;2024-01-30T01:26:35;6.70;99.90
13652;DHT22;6899;51.546;6.912;2024-01-30T01:29:04;6.80;99.90
13652;DHT22;6899;51.546;6.912;2024-01-30T01:31:37;6.80;99.90
13652;DHT22;6899;51.546;6.912;2024-01-30T01:34:09;6.80;99.90
13652;DHT22;6899;51.546;6.912;2024-01-30T01:36:37;6.80;99.90
13652;DHT22;6899;51.546;6.912;2024-01-30T01:39:04;6.90;99.90
13652;DHT22;6899;51.546;6.912;2024-01-30T01:41:31;7.00;99.90
13652;DHT22;6899;51.546;6.912;2024-01-30T01:43:59;7.00;99.90
13652;DHT22;6899;51.546;6.912;2024-01-30T01:46:35;7.00;99.90
13652;DHT22;6899;51.546;6.912;2024-01-30T01:49:06;7.00;99.90
13652;DHT22;6899;51.546;6.912;2024-01-30T01:51:35;7.00;99.90
13652;DHT22;6899;51.546;6.912;2024-01-30T01:54:03;7.00;99.90
13652;DHT22;6899;51.546;6.912;2024-01-30T01:56:33;7.00;99.90
13652;DHT22;6899;51.546;6.912;2024-01-30T01:59:05;7.00;99.90
13652;DHT22;6899;51.546;6.912;2024-01-30T02:01:37;7.00;99.90
13652;DHT22;6899;51.546;6.912;2024-01-30T02:04:08;7.00;99.90
13652;DHT22;6899;51.546;6.912;2024-01-30T02:06:35;7.00;99.90
13652;DHT22;6899;51.546;6.912;2024-01-30T02:09:03;7.00;99.90
13652;DHT22;6899;51.546;6.912;2024-01-30T02:11:31;7.00;99.90
13652;DHT22;6899;51.546;6.912;2024-01-30T02:14:02;6.90;99.90
13652;DHT22;6899;51.546;6.912;2024-01-30T02:16:31;6.90;99.90
13652;DHT22;6899;51.546;6.912;2024-01-30T02:18:59;6.90;99.90
13652;DHT22;6899;51.546;6.912;2024-01-30T02:21:36;6.80;99.90
13652;DHT22;6899;51.546;6.912;2024-01-30T02:24:03;6.80;99.90
13652;DHT22;6899;51.546;6.912;2024-01-30T02:26:30;6.70;99.90
13652;DHT22;6899;51.546;6.912;2024-01-30T02:28:57;6.60;99.90
13652;DHT22;6899;51.546;6.912;2024-01-30T02:31:25;6.60;99.90
13652;DHT22;6899;51.546;6.912;2024-01-30T02:33:52;6.50;99.90
13652;DHT22;6899;51.546;6.912;2024-01-30T02:36:19;6.50;99.90
13652;DHT22;6899;51.546;6.912;2024-01-30T02:38:49;6.50;99.90
13652;DHT22;6899;51.546;6.912;2024-01-30T02:41:16;6.40;99.90
13652;DHT22;6899;51.546;6.912;2024-01-30T02:43:43;6.40;99.90
13652;DHT22;6899;51.546;6.912;2024-01-30T02:46:10;6.30;99.90
13652;DHT22;6899;51.546;6.912;2024-01-30T02:48:37;6.30;99.90
13652;DHT22;6899;51.546;6.912;2024-01-30T02:51:04;6.20;99.90
13652;DHT22;6899;51.546;6.912;2024-01-30T02:53:32;6.20;99.90
13652;DHT22;6899;51.546;6.912;2024-01-30T02:56:00;6.20;99.90
13652;DHT22;6899;51.546;6.912;2024-01-30T02:58:27;6.20;99.90
13652;DHT22;6899;51.546;6.912;2024-01-30T03:00:54;6.20;99.90
13652;DHT22;6899;51.546;6.912;2024-01-30T03:03:21;6.20;99.90
13652;DHT22;6899;51.546;6.912;2024-01-30T03:05:48;6.10;99.90
13652;DHT22;6899;51.546;6.912;2024-01-30T03:08:15;6.10;99.90
13652;DHT22;6899;51.546;6.912;2024-01-30T03:10:41;6.00;99.90
13652;DHT22;6899;51.546;6.912;2024-01-30T03:13:10;6.10;99.90
13652;DHT22;6899;51.546;6.912;2024-01-30T03:15:37;6.00;99.90
13652;DHT22;6899;51.546;6.912;2024-01-30T03:18:04;6.00;99.90
13652;DHT22;6899;51.546;6.912;2024-01-30T03:20:31;5.90;99.90
13652;DHT22;6899;51.546;6.912;2024-01-30T03:23:00;5.90;99.90
13652;DHT22;6899;51.546;6.912;2024-01-30T03:25:29;5.80;99.90
13652;DHT22;6899;51.546;6.912;2024-01-30T03:27:56;5.80;99.90
13652;DHT22;6899;51.546;6.912;2024-01-30T03:30:24;5.80;99.90
13652;DHT22;6899;51.546;6.912;2024-01-30T03:32:51;6.10;99.90
13652;DHT22;6899;51.546;6.912;2024-01-30T03:35:19;6.00;99.90
13652;DHT22;6899;51.546;6.912;2024-01-30T03:37:46;5.90;99.90
13652;DHT22;6899;51.546;6.912;2024-01-30T03:40:17;5.90;99.90
13652;DHT22;6899;51.546;6.912;2024-01-30T03:42:44;5.90;99.90
13652;DHT22;6899;51.546;6.912;2024-01-30T03:45:13;6.00;99.90
13652;DHT22;6899;51.546;6.912;2024-01-30T03:47:43;6.10;99.90
13652;DHT22;6899;51.546;6.912;2024-01-30T03:50:10;6.10;99.90
13652;DHT22;6899;51.546;6.912;2024-01-30T03:52:39;6.20;99.90
13652;DHT22;6899;51.546;6.912;2024-01-30T03:55:07;6.30;99.90
13652;DHT22;6899;51.546;6.912;2024-01-30T03:57:33;6.10;99.90
13652;DHT22;6899;51.546;6.912;2024-01-30T04:00:02;6.10;99.90
13652;DHT22;6899;51.546;6.912;2024-01-30T04:02:33;6.10;99.90
13652;DHT22;6899;51.546;6.912;2024-01-30T04:05:02;6.20;99.90
13652;DHT22;6899;51.546;6.912;2024-01-30T04:07:29;6.10;99.90
13652;DHT22;6899;51.546;6.912;2024-01-30T04:09:56;6.10;99.90
13652;DHT22;6899;51.546;6.912;2024-01-30T04:12:23;6.10;99.90
13652;DHT22;6899;51.546;6.912;2024-01-30T04:14:50;6.10;99.90
13652;DHT22;6899;51.546;6.912;2024-01-30T04:17:17;6.00;99.90
13652;DHT22;6899;51.546;6.912;2024-01-30T04:19:44;6.00;99.90
13652;DHT22;6899;51.546;6.912;2024-01-30T04:22:13;6.00;99.90
13652;DHT22;6899;51.546;6.912;2024-01-30T04:24:39;6.00;99.90
13652;DHT22;6899;51.546;6.912;2024-01-30T04:27:06;6.00;99.90
13652;DHT22;6899;51.546;6.912;2024-01-30T04:29:33;5.90;99.90
13652;DHT22;6899;51.546;6.912;2024-01-30T04:32:00;6.00;99.90
13652;DHT22;6899;51.546;6.912;2024-01-30T04:34:27;5.90;99.90
13652;DHT22;6899;51.546;6.912;2024-01-30T04:36:54;5.90;99.90
13652;DHT22;6899;51.546;6.912;2024-01-30T04:39:22;5.80;99.90
13652;DHT22;6899;51.546;6.912;2024-01-30T04:41:49;5.80;99.90
13652;DHT22;6899;51.546;6.912;2024-01-30T04:44:16;5.80;99.90
13652;DHT22;6899;51.546;6.912;2024-01-30T04:46:43;5.80;99.90
13652;DHT22;6899;51.546;6.912;2024-01-30T04:49:10;5.90;99.90
13652;DHT22;6899;51.546;6.912;2024-01-30T04:51:36;6.00;99.90
13652;DHT22;6899;51.546;6.912;2024-01-30T04:54:03;6.00;99.90
13652;DHT22;6899;51.546;6.912;2024-01-30T04:56:32;6.00;99.90
13652;DHT22;6899;51.546;6.912;2024-01-30T04:58:59;6.10;99.90
13652;DHT22;6899;51.546;6.912;2024-01-30T05:01:26;6.20;99.90
13652;DHT22;6899;51.546;6.912;2024-01-30T05:03:52;6.20;99.90
13652;DHT22;6899;51.546;6.912;2024-01-30T05:06:26;6.20;99.90
13652;DHT22;6899;51.546;6.912;2024-01-30T05:08:53;6.30;99.90
13652;DHT22;6899;51.546;6.912;2024-01-30T05:11:20;6.40;99.90
13652;DHT22;6899;51.546;6.912;2024-01-30T05:13:48;6.50;99.90
13652;DHT22;6899;51.546;6.912;2024-01-30T05:16:15;6.50;99.90
13652;DHT22;6899;51.546;6.912;2024-01-30T05:18:43;6.50;99.90
13652;DHT22;6899;51.546;6.912;2024-01-30T05:21:13;6.50;99.90
13652;DHT22;6899;51.546;6.912;2024-01-30T05:23:40;6.60;99.90
13652;DHT22;6899;51.546;6.912;2024-01-30T05:26:07;6.60;99.90
13652;DHT22;6899;51.546;6.912;2024-01-30T05:28:34;6.70;99.90
13652;DHT22;6899;51.546;6.912;2024-01-30T05:31:04;6.60;99.90
13652;DHT22;6899;51.546;6.912;2024-01-30T05:33:31;6.90;99.90
13652;DHT22;6899;51.546;6.912;2024-01-30T05:35:58;6.90;99.90
13652;DHT22;6899;51.546;6.912;2024-01-30T05:38:25;7.00;99.90
13652;DHT22;6899;51.546;6.912;2024-01-30T05:40:52;7.00;99.90
13652;DHT22;6899;51.546;6.912;2024-01-30T05:43:19;7.00;99.90
13652;DHT22;6899;51.546;6.912;2024-01-30T05:45:48;7.10;99.90
13652;DHT22;6899;51.546;6.912;2024-01-30T05:48:17;7.20;99.90
13652;DHT22;6899;51.546;6.912;2024-01-30T05:50:44;7.00;99.90
13652;DHT22;6899;51.546;6.912;2024-01-30T05:53:11;7.00;99.90
13652;DHT22;6899;51.546;6.912;2024-01-30T05:55:38;7.00;99.90
13652;DHT22;6899;51.546;6.912;2024-01-30T05:58:05;7.00;99.90
13652;DHT22;6899;51.546;6.912;2024-01-30T06:00:31;7.00;99.90
13652;DHT22;6899;51.546;6.912;2024-01-30T06:02:58;6.90;99.90
13652;DHT22;6899;51.546;6.912;2024-01-30T06:05:28;6.90;99.90
13652;DHT22;6899;51.546;6.912;2024-01-30T06:07:56;6.80;99.90
13652;DHT22;6899;51.546;6.912;2024-01-30T06:10:22;6.90;99.90
13652;DHT22;6899;51.546;6.912;2024-01-30T06:12:49;6.80;99.90
13652;DHT22;6899;51.546;6.912;2024-01-30T06:15:16;6.70;99.90
13652;DHT22;6899;51.546;6.912;2024-01-30T06:17:44;6.70;99.90
13652;DHT22;6899;51.546;6.912;2024-01-30T06:20:11;6.80;99.90
13652;DHT22;6899;51.546;6.912;2024-01-30T06:22:47;6.80;99.90
13652;DHT22;6899;51.546;6.912;2024-01-30T06:25:14;6.90;99.90
13652;DHT22;6899;51.546;6.912;2024-01-30T06:27:42;6.90;99.90
13652;DHT22;6899;51.546;6.912;2024-01-30T06:30:09;7.00;99.90
13652;DHT22;6899;51.546;6.912;2024-01-30T06:32:37;7.10;99.90
13652;DHT22;6899;51.546;6.912;2024-01-30T06:35:05;7.10;99.90
13652;DHT22;6899;51.546;6.912;2024-01-30T06:37:32;7.10;99.90
13652;DHT22;6899;51.546;6.912;2024-01-30T06:40:01;7.20;99.90
13652;DHT22;6899;51.546;6.912;2024-01-30T06:42:30;7.30;99.90
13652;DHT22;6899;51.546;6.912;2024-01-30T06:44:57;7.40;99.90
13652;DHT22;6899;51.546;6.912;2024-01-30T06:47:23;7.50;99.90
13652;DHT22;6899;51.546;6.912;2024-01-30T06:50:05;7.50;99.90
13652;DHT22;6899;51.546;6.912;2024-01-30T06:52:32;7.60;99.90
13652;DHT22;6899;51.546;6.912;2024-01-30T06:55:10;7.50;99.90
13652;DHT22;6899;51.546;6.912;2024-01-30T06:57:38;7.60;99.90
13652;DHT22;6899;51.546;6.912;2024-01-30T07:00:09;7.60;99.90
13652;DHT22;6899;51.546;6.912;2024-01-30T07:02:36;7.70;99.90
13652;DHT22;6899;51.546;6.912;2024-01-30T07:05:03;7.90;99.90
13652;DHT22;6899;51.546;6.912;2024-01-30T07:07:30;7.80;99.90
13652;DHT22;6899;51.546;6.912;2024-01-30T07:09:57;8.00;99.90
13652;DHT22;6899;51.546;6.912;2024-01-30T07:12:25;8.00;99.90
13652;DHT22;6899;51.546;6.912;2024-01-30T07:14:52;8.10;99.90
13652;DHT22;6899;51.546;6.912;2024-01-30T07:17:19;8.10;99.90
13652;DHT22;6899;51.546;6.912;2024-01-30T07:19:46;8.10;99.90
13652;DHT22;6899;51.546;6.912;2024-01-30T07:22:13;8.10;99.90
13652;DHT22;6899;51.546;6.912;2024-01-30T07:24:42;8.10;99.90
13652;DHT22;6899;51.546;6.912;2024-01-30T07:27:12;8.10;99.90
13652;DHT22;6899;51.546;6.912;2024-01-30T07:29:41;8.10;99.90
13652;DHT22;6899;51.546;6.912;2024-01-30T07:32:08;8.10;99.90
13652;DHT22;6899;51.546;6.912;2024-01-30T07:34:35;8.10;99.90
13652;DHT22;6899;51.546;6.912;2024-01-30T07:37:05;8.10;99.90
13652;DHT22;6899;51.546;6.912;2024-01-30T07:39:33;8.10;99.90
13652;DHT22;6899;51.546;6.912;2024-01-30T07:42:01;8.10;99.90
13652;DHT22;6899;51.546;6.912;2024-01-30T07:44:28;8.20;99.90
13652;DHT22;6899;51.546;6.912;2024-01-30T07:46:56;8.20;99.90
13652;DHT22;6899;51.546;6.912;2024-01-30T07:49:28;8.20;99.90
13652;DHT22;6899;51.546;6.912;2024-01-30T07:51:55;8.30;99.90
13652;DHT22;6899;51.546;6.912;2024-01-30T07:54:22;8.30;99.90
13652;DHT22;6899;51.546;6.912;2024-01-30T07:56:49;8.30;99.90
13652;DHT22;6899;51.546;6.912;2024-01-30T07:59:16;8.30;99.90
13652;DHT22;6899;51.546;6.912;2024-01-30T08:01:45;8.40;99.90
13652;DHT22;6899;51.546;6.912;2024-01-30T08:04:13;8.40;99.90
13652;DHT22;6899;51.546;6.912;2024-01-30T08:06:40;8.50;99.90
13652;DHT22;6899;51.546;6.912;2024-01-30T08:09:07;8.60;99.90
13652;DHT22;6899;51.546;6.912;2024-01-30T08:11:33;8.60;99.90
13652;DHT22;6899;51.546;6.912;2024-01-30T08:14:06;8.70;99.90
13652;DHT22;6899;51.546;6.912;2024-01-30T08:16:33;8.70;99.90
13652;DHT22;6899;51.546;6.912;2024-01-30T08:19:00;8.80;99.90
13652;DHT22;6899;51.546;6.912;2024-01-30T08:21:29;8.80;99.90
13652;DHT22;6899;51.546;6.912;2024-01-30T08:23:55;8.80;99.90
13652;DHT22;6899;51.546;6.912;2024-01-30T08:26:22;8.80;99.90
13652;DHT22;6899;51.546;6.912;2024-01-30T08:28:49;8.80;99.90
13652;DHT22;6899;51.546;6.912;2024-01-30T08:31:17;8.90;99.90
13652;DHT22;6899;51.546;6.912;2024-01-30T08:33:44;8.90;99.90
13652;DHT22;6899;51.546;6.912;2024-01-30T08:36:11;8.90;99.90
13652;DHT22;6899;51.546;6.912;2024-01-30T08:38:39;9.00;99.90
13652;DHT22;6899;51.546;6.912;2024-01-30T08:41:07;9.00;99.90
13652;DHT22;6899;51.546;6.912;2024-01-30T08:43:34;9.10;99.90
13652;DHT22;6899;51.546;6.912;2024-01-30T08:46:03;9.30;99.90
13652;DHT22;6899;51.546;6.912;2024-01-30T08:48:30;9.30;99.90
13652;DHT22;6899;51.546;6.912;2024-01-30T08:50:59;9.30;99.90
13652;DHT22;6899;51.546;6.912;2024-01-30T08:53:26;9.30;99.90
13652;DHT22;6899;51.546;6.912;2024-01-30T08:55:57;9.30;99.90
13652;DHT22;6899;51.546;6.912;2024-01-30T08:58:24;9.40;99.90
13652;DHT22;6899;51.546;6.912;2024-01-30T09:00:53;9.40;99.90
13652;DHT22;6899;51.546;6.912;2024-01-30T09:03:20;9.40;99.90
13652;DHT22;6899;51.546;6.912;2024-01-30T09:05:47;9.50;99.90
13652;DHT22;6899;51.546;6.912;2024-01-30T09:08:16;9.50;99.90
13652;DHT22;6899;51.546;6.912;2024-01-30T09:10:46;9.50;99.90
13652;DHT22;6899;51.546;6.912;2024-01-30T09:13:15;9.50;99.90
13652;DHT22;6899;51.546;6.912;2024-01-30T09:15:42;9.60;99.90
13652;DHT22;6899;51.546;6.912;2024-01-30T09:18:09;9.60;99.90
13652;DHT22;6899;51.546;6.912;2024-01-30T09:20:36;9.60;99.90
13652;DHT22;6899;51.546;6.912;2024-01-30T09:23:03;9.70;99.90
13652;DHT22;6899;51.546;6.912;2024-01-30T09:25:32;9.70;99.90
13652;DHT22;6899;51.546;6.912;2024-01-30T09:28:00;9.80;99.90
13652;DHT22;6899;51.546;6.912;2024-01-30T09:30:29;9.80;99.90
13652;DHT22;6899;51.546;6.912;2024-01-30T09:32:56;9.80;99.90
13652;DHT22;6899;51.546;6.912;2024-01-30T09:35:23;10.00;99.90
13652;DHT22;6899;51.546;6.912;2024-01-30T09:37:50;10.10;99.90
13652;DHT22;6899;51.546;6.912;2024-01-30T09:40:18;10.20;99.90
13652;DHT22;6899;51.546;6.912;2024-01-30T09:42:47;10.40;99.90
13652;DHT22;6899;51.546;6.912;2024-01-30T09:45:16;10.70;99.90
13652;DHT22;6899;51.546;6.912;2024-01-30T09:47:45;10.90;99.90
13652;DHT22;6899;51.546;6.912;2024-01-30T09:50:13;10.90;99.90
13652;DHT22;6899;51.546;6.912;2024-01-30T09:52:43;11.10;99.90
13652;DHT22;6899;51.546;6.912;2024-01-30T09:55:12;11.20;99.90
13652;DHT22;6899;51.546;6.912;2024-01-30T09:57:43;11.20;99.90
13652;DHT22;6899;51.546;6.912;2024-01-30T10:00:11;11.30;99.90
13652;DHT22;6899;51.546;6.912;2024-01-30T10:02:39;11.50;99.90
13652;DHT22;6899;51.546;6.912;2024-01-30T10:05:08;11.60;99.90
13652;DHT22;6899;51.546;6.912;2024-01-30T10:07:36;11.70;99.90
13652;DHT22;6899;51.546;6.912;2024-01-30T10:10:05;11.80;99.90
13652;DHT22;6899;51.546;6.912;2024-01-30T10:12:32;11.60;99.90
13652;DHT22;6899;51.546;6.912;2024-01-30T10:14:59;11.80;99.90
13652;DHT22;6899;51.546;6.912;2024-01-30T10:17:26;12.00;99.90
13652;DHT22;6899;51.546;6.912;2024-01-30T10:19:53;12.10;99.90
13652;DHT22;6899;51.546;6.912;2024-01-30T10:22:28;12.20;99.90
13652;DHT22;6899;51.546;6.912;2024-01-30T10:24:54;12.20;99.90
13652;DHT22;6899;51.546;6.912;2024-01-30T10:27:25;12.40;99.90
13652;DHT22;6899;51.546;6.912;2024-01-30T10:29:52;12.40;99.90
13652;DHT22;6899;51.546;6.912;2024-01-30T10:32:22;12.30;99.90
13652;DHT22;6899;51.546;6.912;2024-01-30T10:34:49;12.20;99.90
13652;DHT22;6899;51.546;6.912;2024-01-30T10:37:16;12.30;99.90
13652;DHT22;6899;51.546;6.912;2024-01-30T10:39:46;12.10;99.90
13652;DHT22;6899;51.546;6.912;2024-01-30T10:42:14;12.10;99.90
13652;DHT22;6899;51.546;6.912;2024-01-30T10:44:48;12.20;99.90
13652;DHT22;6899;51.546;6.912;2024-01-30T10:47:25;12.10;99.90
13652;DHT22;6899;51.546;6.912;2024-01-30T10:49:52;12.00;99.90
13652;DHT22;6899;51.546;6.912;2024-01-30T10:52:23;12.10;99.90
13652;DHT22;6899;51.546;6.912;2024-01-30T10:54:54;12.10;99.90
13652;DHT22;6899;51.546;6.912;2024-01-30T10:57:23;12.30;99.90
13652;DHT22;6899;51.546;6.912;2024-01-30T10:59:52;12.30;99.90
13652;DHT22;6899;51.546;6.912;2024-01-30T11:02:21;12.50;99.90
13652;DHT22;6899;51.546;6.912;2024-01-30T11:04:55;12.50;99.90
13652;DHT22;6899;51.546;6.912;2024-01-30T11:07:25;12.50;99.90
13652;DHT22;6899;51.546;6.912;2024-01-30T11:10:00;12.30;99.90
13652;DHT22;6899;51.546;6.912;2024-01-30T11:12:28;12.20;99.90
13652;DHT22;6899;51.546;6.912;2024-01-30T11:15:03;12.30;99.90
13652;DHT22;6899;51.546;6.912;2024-01-30T11:17:43;12.30;99.90
13652;DHT22;6899;51.546;6.912;2024-01-30T11:20:11;12.40;99.90
13652;DHT22;6899;51.546;6.912;2024-01-30T11:22:41;12.70;99.90
13652;DHT22;6899;51.546;6.912;2024-01-30T11:25:13;12.70;99.90
13652;DHT22;6899;51.546;6.912;2024-01-30T11:27:41;12.80;99.90
13652;DHT22;6899;51.546;6.912;2024-01-30T11:30:11;12.60;99.90
13652;DHT22;6899;51.546;6.912;2024-01-30T11:32:38;12.50;99.90
13652;DHT22;6899;51.546;6.912;2024-01-30T11:35:09;12.50;99.90
13652;DHT22;6899;51.546;6.912;2024-01-30T11:37:43;12.50;99.90
13652;DHT22;6899;51.546;6.912;2024-01-30T11:40:16;12.50;99.90
13652;DHT22;6899;51.546;6.912;2024-01-30T11:42:45;12.30;99.90
13652;DHT22;6899;51.546;6.912;2024-01-30T11:45:16;12.30;99.90
13652;DHT22;6899;51.546;6.912;2024-01-30T11:47:44;12.20;99.90
13652;DHT22;6899;51.546;6.912;2024-01-30T11:50:11;12.20;99.90
13652;DHT22;6899;51.546;6.912;2024-01-30T11:52:38;12.20;99.90
13652;DHT22;6899;51.546;6.912;2024-01-30T11:55:10;12.10;99.90
13652;DHT22;6899;51.546;6.912;2024-01-30T11:57:38;12.00;99.90
13652;DHT22;6899;51.546;6.912;2024-01-30T12:00:13;11.90;99.90
13652;DHT22;6899;51.546;6.912;2024-01-30T12:02:41;11.90;99.90
13652;DHT22;6899;51.546;6.912;2024-01-30T12:05:08;11.90;99.90
13652;DHT22;6899;51.546;6.912;2024-01-30T12:07:36;11.90;99.90
13652;DHT22;6899;51.546;6.912;2024-01-30T12:10:04;11.90;99.90
13652;DHT22;6899;51.546;6.912;2024-01-30T12:12:33;11.80;99.90
13652;DHT22;6899;51.546;6.912;2024-01-30T12:15:03;11.80;99.90
13652;DHT22;6899;51.546;6.912;2024-01-30T12:17:32;11.80;99.90
13652;DHT22;6899;51.546;6.912;2024-01-30T12:20:04;12.00;99.90
13652;DHT22;6899;51.546;6.912;2024-01-30T12:22:35;12.00;99.90
13652;DHT22;6899;51.546;6.912;2024-01-30T12:25:03;12.00;99.90
13652;DHT22;6899;51.546;6.912;2024-01-30T12:27:30;12.10;99.90
13652;DHT22;6899;51.546;6.912;2024-01-30T12:29:58;12.00;99.90
13652;DHT22;6899;51.546;6.912;2024-01-30T12:32:28;11.90;99.90
13652;DHT22;6899;51.546;6.912;2024-01-30T12:34:55;12.00;99.90
13652;DHT22;6899;51.546;6.912;2024-01-30T12:37:24;12.00;99.90
13652;DHT22;6899;51.546;6.912;2024-01-30T12:39:52;11.90;99.90
13652;DHT22;6899;51.546;6.912;2024-01-30T12:42:20;11.90;99.90
13652;DHT22;6899;51.546;6.912;2024-01-30T12:44:48;11.80;99.90
13652;DHT22;6899;51.546;6.912;2024-01-30T12:47:15;11.80;99.90
13652;DHT22;6899;51.546;6.912;2024-01-30T12:49:44;11.80;99.90
13652;DHT22;6899;51.546;6.912;2024-01-30T12:52:11;11.80;99.90
13652;DHT22;6899;51.546;6.912;2024-01-30T12:54:38;11.80;99.90
13652;DHT22;6899;51.546;6.912;2024-01-30T12:57:05;11.70;99.90
13652;DHT22;6899;51.546;6.912;2024-01-30T12:59:32;11.70;99.90
13652;DHT22;6899;51.546;6.912;2024-01-30T13:02:00;11.70;99.90
13652;DHT22;6899;51.546;6.912;2024-01-30T13:04:27;11.60;99.90
13652;DHT22;6899;51.546;6.912;2024-01-30T13:06:56;11.70;99.90
13652;DHT22;6899;51.546;6.912;2024-01-30T13:09:24;11.60;99.90
13652;DHT22;6899;51.546;6.912;2024-01-30T13:11:53;11.50;99.90
13652;DHT22;6899;51.546;6.912;2024-01-30T13:14:20;11.50;99.90
13652;DHT22;6899;51.546;6.912;2024-01-30T13:16:47;11.50;99.90
13652;DHT22;6899;51.546;6.912;2024-01-30T13:19:15;11.50;99.90
13652;DHT22;6899;51.546;6.912;2024-01-30T13:21:48;11.60;99.90
13652;DHT22;6899;51.546;6.912;2024-01-30T13:24:21;11.70;99.90
13652;DHT22;6899;51.546;6.912;2024-01-30T13:26:48;11.70;99.90
13652;DHT22;6899;51.546;6.912;2024-01-30T13:29:18;11.80;99.90
13652;DHT22;6899;51.546;6.912;2024-01-30T13:31:47;11.70;99.90
13652;DHT22;6899;51.546;6.912;2024-01-30T13:34:14;11.90;99.90
13652;DHT22;6899;51.546;6.912;2024-01-30T13:36:43;11.90;99.90
13652;DHT22;6899;51.546;6.912;2024-01-30T13:39:10;11.90;99.90
13652;DHT22;6899;51.546;6.912;2024-01-30T13:41:41;12.00;99.90
13652;DHT22;6899;51.546;6.912;2024-01-30T13:44:08;12.00;99.90
13652;DHT22;6899;51.546;6.912;2024-01-30T13:46:36;12.00;99.90
13652;DHT22;6899;51.546;6.912;2024-01-30T13:49:04;12.00;99.90
13652;DHT22;6899;51.546;6.912;2024-01-30T13:51:34;11.90;99.90
13652;DHT22;6899;51.546;6.912;2024-01-30T13:54:00;11.80;99.90
13652;DHT22;6899;51.546;6.912;2024-01-30T13:56:27;11.70;99.90
13652;DHT22;6899;51.546;6.912;2024-01-30T13:58:57;11.70;99.90
13652;DHT22;6899;51.546;6.912;2024-01-30T14:01:24;11.60;99.90
13652;DHT22;6899;51.546;6.912;2024-01-30T14:03:50;11.60;99.90
13652;DHT22;6899;51.546;6.912;2024-01-30T14:06:17;11.70;99.90
13652;DHT22;6899;51.546;6.912;2024-01-30T14:08:45;11.70;99.90
13652;DHT22;6899;51.546;6.912;2024-01-30T14:11:14;11.70;99.90
13652;DHT22;6899;51.546;6.912;2024-01-30T14:13:42;11.70;99.90
13652;DHT22;6899;51.546;6.912;2024-01-30T14:16:11;11.80;99.90
13652;DHT22;6899;51.546;6.912;2024-01-30T14:18:37;11.90;99.90
13652;DHT22;6899;51.546;6.912;2024-01-30T14:21:05;12.00;99.90
13652;DHT22;6899;51.546;6.912;2024-01-30T14:23:33;12.00;99.90
13652;DHT22;6899;51.546;6.912;2024-01-30T14:26:00;12.10;99.90
13652;DHT22;6899;51.546;6.912;2024-01-30T14:28:27;12.10;99.90
13652;DHT22;6899;51.546;6.912;2024-01-30T14:30:54;12.20;99.90
13652;DHT22;6899;51.546;6.912;2024-01-30T14:33:22;12.20;99.90
13652;DHT22;6899;51.546;6.912;2024-01-30T14:35:51;12.10;99.90
13652;DHT22;6899;51.546;6.912;2024-01-30T14:38:18;11.90;99.90
13652;DHT22;6899;51.546;6.912;2024-01-30T14:40:45;11.90;99.90
13652;DHT22;6899;51.546;6.912;2024-01-30T14:43:12;11.80;99.90
13652;DHT22;6899;51.546;6.912;2024-01-30T14:45:39;11.80;99.90
13652;DHT22;6899;51.546;6.912;2024-01-30T14:48:07;11.80;99.90
13652;DHT22;6899;51.546;6.912;2024-01-30T14:50:35;11.70;99.90
13652;DHT22;6899;51.546;6.912;2024-01-30T14:53:03;11.60;99.90
13652;DHT22;6899;51.546;6.912;2024-01-30T14:55:30;11.50;99.90
13652;DHT22;6899;51.546;6.912;2024-01-30T14:57:59;11.40;99.90
13652;DHT22;6899;51.546;6.912;2024-01-30T15:00:29;11.30;99.90
13652;DHT22;6899;51.546;6.912;2024-01-30T15:02:56;11.30;99.90
13652;DHT22;6899;51.546;6.912;2024-01-30T15:05:23;11.20;99.90
13652;DHT22;6899;51.546;6.912;2024-01-30T15:07:51;11.20;99.90
13652;DHT22;6899;51.546;6.912;2024-01-30T15:10:24;11.20;99.90
13652;DHT22;6899;51.546;6.912;2024-01-30T15:12:51;11.20;99.90
13652;DHT22;6899;51.546;6.912;2024-01-30T15:15:18;11.20;99.90
13652;DHT22;6899;51.546;6.912;2024-01-30T15:17:45;11.10;99.90
13652;DHT22;6899;51.546;6.912;2024-01-30T15:20:12;11.00;99.90
13652;DHT22;6899;51.546;6.912;2024-01-30T15:22:51;10.90;99.90
13652;DHT22;6899;51.546;6.912;2024-01-30T15:25:19;10.80;99.90
13652;DHT22;6899;51.546;6.912;2024-01-30T15:27:49;10.70;99.90
13652;DHT22;6899;51.546;6.912;2024-01-30T15:30:17;10.70;99.90
13652;DHT22;6899;51.546;6.912;2024-01-30T15:32:48;10.60;99.90
13652;DHT22;6899;51.546;6.912;2024-01-30T15:35:15;10.70;99.90
13652;DHT22;6899;51.546;6.912;2024-01-30T15:37:42;10.60;99.90
13652;DHT22;6899;51.546;6.912;2024-01-30T15:40:11;10.60;99.90
13652;DHT22;6899;51.546;6.912;2024-01-30T15:42:40;10.60;99.90
13652;DHT22;6899;51.546;6.912;2024-01-30T15:45:07;10.50;99.90
13652;DHT22;6899;51.546;6.912;2024-01-30T15:47:34;10.40;99.90
13652;DHT22;6899;51.546;6.912;2024-01-30T15:50:01;10.20;99.90
13652;DHT22;6899;51.546;6.912;2024-01-30T15:52:28;10.00;99.90
13652;DHT22;6899;51.546;6.912;2024-01-30T15:54:55;9.80;99.90
13652;DHT22;6899;51.546;6.912;2024-01-30T15:57:25;9.60;99.90
13652;DHT22;6899;51.546;6.912;2024-01-30T15:59:51;9.50;99.90
13652;DHT22;6899;51.546;6.912;2024-01-30T16:02:19;9.40;99.90